Time;durP1;ratioP1;P1;durP2;ratioP2;P2;SDS_P1;SDS_P2;PMS_P1;PMS_P2;Temp;Humidity;BMP_temperature;BMP_pressure;BME280_temperature;BME280_humidity;BME280_pressure;Samples;Min_cycle;Max_cycle;Signal;HPM_P1;HPM_P2
2024/04/13 00:02:07;;;;;;;2.25;2.05;;;12.80;99.90;;;;;;5489743;26;19994;-73
2024/04/13 00:04:34;;;;;;;2.75;2.55;;;12.80;99.90;;;;;;5488276;26;19995;-73
2024/04/13 00:07:01;;;;;;;3.78;3.20;;;12.80;99.90;;;;;;5489706;26;20434;-73
2024/04/13 00:09:28;;;;;;;7.20;3.47;;;12.80;99.90;;;;;;5490205;26;19994;-73
2024/04/13 00:11:55;;;;;;;5.10;3.08;;;12.80;99.90;;;;;;5488138;26;19994;-73
2024/04/13 00:14:23;;;;;;;2.63;2.33;;;12.70;99.90;;;;;;5489851;26;20354;-73
2024/04/13 00:16:50;;;;;;;3.95;3.65;;;12.70;99.90;;;;;;5487765;26;19998;-73
2024/04/13 00:19:17;;;;;;;3.15;1.95;;;12.70;99.90;;;;;;5489717;26;19998;-73
2024/04/13 00:21:45;;;;;;;4.22;3.28;;;12.70;99.90;;;;;;5489686;26;20009;-73
2024/04/13 00:24:12;;;;;;;3.15;2.83;;;12.70;99.90;;;;;;5489323;26;19998;-73
2024/04/13 00:26:39;;;;;;;2.63;2.42;;;12.60;99.90;;;;;;5489467;26;20401;-73
2024/04/13 00:29:06;;;;;;;3.80;3.40;;;12.60;99.90;;;;;;5487469;26;20343;-73
2024/04/13 00:31:33;;;;;;;3.85;2.90;;;12.60;99.90;;;;;;5487755;26;20010;-73
2024/04/13 00:34:04;;;;;;;5.45;2.65;;;12.60;99.90;;;;;;5489280;26;20014;-73
2024/04/13 00:36:35;;;;;;;3.05;2.63;;;12.60;99.90;;;;;;5487791;26;20009;-73
2024/04/13 00:39:04;;;;;;;4.63;3.10;;;12.50;99.90;;;;;;5487604;26;19994;-73
2024/04/13 00:41:32;;;;;;;3.30;2.97;;;12.50;99.90;;;;;;5487884;26;19997;-73
2024/04/13 00:44:00;;;;;;;3.35;2.08;;;12.50;99.90;;;;;;5489312;26;20005;-73
2024/04/13 00:46:31;;;;;;;3.17;2.85;;;12.40;99.90;;;;;;5487851;26;19998;-73
2024/04/13 00:48:59;;;;;;;3.67;2.95;;;12.40;99.90;;;;;;5487408;26;20385;-73
2024/04/13 00:51:31;;;;;;;4.40;4.13;;;12.40;99.90;;;;;;5489040;26;20031;-73
2024/04/13 00:53:59;;;;;;;5.38;3.65;;;12.40;99.90;;;;;;5488909;26;20013;-73
2024/04/13 00:56:26;;;;;;;4.22;3.92;;;12.40;99.90;;;;;;5487169;26;20029;-73
2024/04/13 00:58:54;;;;;;;7.20;3.65;;;12.30;99.90;;;;;;5487156;26;20002;-73
2024/04/13 01:01:22;;;;;;;4.18;3.85;;;12.30;99.90;;;;;;5487471;26;20385;-73
2024/04/13 01:03:51;;;;;;;3.28;2.97;;;12.30;99.90;;;;;;5488996;26;20009;-73
2024/04/13 01:06:18;;;;;;;6.72;3.17;;;12.30;99.90;;;;;;5488694;26;19998;-73
2024/04/13 01:08:46;;;;;;;4.78;3.42;;;12.30;99.90;;;;;;5487084;26;20005;-73
2024/04/13 01:11:13;;;;;;;3.35;3.15;;;12.30;99.90;;;;;;5486662;26;19998;-73
2024/04/13 01:13:41;;;;;;;3.38;3.08;;;12.30;99.90;;;;;;5488811;26;20055;-73
2024/04/13 01:16:08;;;;;;;4.38;3.40;;;12.30;99.90;;;;;;5455905;26;20481;-74
2024/04/13 01:18:35;;;;;;;3.47;2.95;;;12.30;99.90;;;;;;5488799;26;19994;-73
2024/04/13 01:21:04;;;;;;;3.13;2.75;;;12.30;99.90;;;;;;5487060;26;20008;-73
2024/04/13 01:23:32;;;;;;;2.40;2.20;;;12.30;99.90;;;;;;5488733;26;20002;-73
2024/04/13 01:25:59;;;;;;;2.53;2.28;;;12.30;99.90;;;;;;5486795;26;20488;-73
2024/04/13 01:28:31;;;;;;;5.57;3.70;;;12.30;99.90;;;;;;5456981;26;19994;-73
2024/04/13 01:30:58;;;;;;;4.15;3.75;;;12.30;99.90;;;;;;5487246;26;20013;-73
2024/04/13 01:33:25;;;;;;;2.67;2.47;;;12.30;99.90;;;;;;5486554;26;19998;-73
2024/04/13 01:35:59;;;;;;;5.75;4.18;;;12.30;99.90;;;;;;5456506;26;19998;-73
2024/04/13 01:38:26;;;;;;;3.65;3.35;;;12.20;99.90;;;;;;5486734;26;20039;-73
2024/04/13 01:40:54;;;;;;;3.28;2.97;;;12.30;99.90;;;;;;5488347;26;20014;-73
2024/04/13 01:43:21;;;;;;;5.78;4.55;;;12.30;99.90;;;;;;5487959;26;20002;-73
2024/04/13 01:45:50;;;;;;;3.60;2.85;;;12.30;99.90;;;;;;5486407;26;20070;-73
2024/04/13 01:48:19;;;;;;;4.63;3.80;;;12.40;99.90;;;;;;5487885;26;20074;-74
2024/04/13 01:50:47;;;;;;;4.40;3.60;;;12.40;99.90;;;;;;5487981;26;20359;-73
2024/04/13 01:53:14;;;;;;;3.78;2.83;;;12.40;99.90;;;;;;5487901;26;20416;-73
2024/04/13 01:55:41;;;;;;;6.90;3.95;;;12.50;99.90;;;;;;5488382;26;20005;-73
2024/04/13 01:58:08;;;;;;;2.60;2.40;;;12.50;99.90;;;;;;5485656;26;20070;-73
2024/04/13 02:00:37;;;;;;;3.92;3.35;;;12.50;99.90;;;;;;5486752;26;20066;-73
2024/04/13 02:03:04;;;;;;;4.57;3.63;;;12.50;99.90;;;;;;5487893;26;20002;-73
2024/04/13 02:05:34;;;;;;;3.70;3.40;;;12.50;99.90;;;;;;5456299;26;20347;-73
2024/04/13 02:08:03;;;;;;;2.78;2.47;;;12.50;99.90;;;;;;5488360;26;19994;-73
2024/04/13 02:10:31;;;;;;;4.30;3.45;;;12.50;99.90;;;;;;5485757;26;20006;-73
2024/04/13 02:12:58;;;;;;;2.33;2.13;;;12.50;99.90;;;;;;5487579;26;19998;-73
2024/04/13 02:15:25;;;;;;;4.78;2.70;;;12.50;99.90;;;;;;5485596;26;20003;-73
2024/04/13 02:17:52;;;;;;;4.05;2.92;;;12.50;99.90;;;;;;5487735;26;20034;-73
2024/04/13 02:20:19;;;;;;;3.20;2.33;;;12.50;99.90;;;;;;5485557;26;19998;-73
2024/04/13 02:22:46;;;;;;;4.32;3.58;;;12.50;99.90;;;;;;5487426;26;20226;-73
2024/04/13 02:25:14;;;;;;;4.05;3.65;;;12.50;99.90;;;;;;5487271;26;19998;-74
2024/04/13 02:27:41;;;;;;;3.78;3.45;;;12.60;99.90;;;;;;5487016;26;20006;-73
2024/04/13 02:30:09;;;;;;;5.22;4.93;;;12.50;99.90;;;;;;5489166;26;20463;-73
2024/04/13 02:32:37;;;;;;;4.18;2.97;;;12.60;99.90;;;;;;5489649;26;19998;-73
2024/04/13 02:35:07;;;;;;;3.08;2.58;;;12.60;99.90;;;;;;5489418;26;19994;-74
2024/04/13 02:37:34;;;;;;;4.60;3.47;;;12.60;99.90;;;;;;5491740;26;20031;-73
2024/04/13 02:40:07;;;;;;;4.00;2.15;;;12.60;99.90;;;;;;5489584;26;20023;-73
2024/04/13 02:42:38;;;;;;;4.65;3.70;;;12.50;99.90;;;;;;5491302;26;19998;-73
2024/04/13 02:45:05;;;;;;;3.97;2.95;;;12.50;99.90;;;;;;5491491;26;20008;-73
2024/04/13 02:47:33;;;;;;;3.53;3.22;;;12.50;99.90;;;;;;5459131;26;20009;-73
2024/04/13 02:50:00;;;;;;;2.97;2.40;;;12.50;99.90;;;;;;5489163;26;20003;-73
2024/04/13 02:52:28;;;;;;;4.93;2.55;;;12.50;99.90;;;;;;5490343;26;20590;-73
2024/04/13 02:54:55;;;;;;;3.35;3.05;;;12.40;99.90;;;;;;5459072;26;20072;-73
2024/04/13 02:57:24;;;;;;;4.38;3.70;;;12.40;99.90;;;;;;5490483;26;19998;-73
2024/04/13 02:59:52;;;;;;;4.43;2.20;;;12.40;99.90;;;;;;5489114;26;20010;-73
2024/04/13 03:02:19;;;;;;;2.70;2.50;;;12.40;99.90;;;;;;5460386;26;20016;-73
2024/04/13 03:04:50;;;;;;;3.90;3.25;;;12.40;99.90;;;;;;5503901;26;19997;-73
2024/04/13 03:07:18;;;;;;;5.45;2.33;;;12.40;99.90;;;;;;5504665;26;20009;-74
2024/04/13 03:09:48;;;;;;;1.73;1.63;;;12.30;99.90;;;;;;5488628;26;20009;-73
2024/04/13 03:12:16;;;;;;;2.25;2.00;;;12.30;99.90;;;;;;5490581;26;19998;-73
2024/04/13 03:14:43;;;;;;;3.35;2.65;;;12.30;99.90;;;;;;5488909;26;20005;-73
2024/04/13 03:17:10;;;;;;;3.45;2.00;;;12.40;99.90;;;;;;5489034;26;19998;-73
2024/04/13 03:19:38;;;;;;;4.07;2.63;;;12.30;99.90;;;;;;5490647;26;20012;-73
2024/04/13 03:22:06;;;;;;;3.70;2.55;;;12.30;99.90;;;;;;5490800;26;19994;-73
2024/04/13 03:24:34;;;;;;;3.13;2.38;;;12.30;99.90;;;;;;5488526;26;20006;-73
2024/04/13 03:27:02;;;;;;;4.28;3.22;;;12.30;99.90;;;;;;5488837;26;19998;-73
2024/04/13 03:29:29;;;;;;;3.65;2.35;;;12.30;99.90;;;;;;5490109;26;19998;-73
2024/04/13 03:31:56;;;;;;;2.70;1.95;;;12.30;99.90;;;;;;5488628;26;20001;-73
2024/04/13 03:34:25;;;;;;;3.67;2.03;;;12.30;99.90;;;;;;5488432;26;20070;-73
2024/04/13 03:36:52;;;;;;;4.00;2.40;;;12.30;99.90;;;;;;5488442;26;20384;-73
2024/04/13 03:39:25;;;;;;;2.72;2.47;;;12.20;99.90;;;;;;5487169;26;19998;-73
2024/04/13 03:41:52;;;;;;;3.08;2.53;;;12.20;99.90;;;;;;5490253;26;20137;-73
2024/04/13 03:44:19;;;;;;;3.28;1.77;;;12.10;99.90;;;;;;5489978;26;20013;-73
2024/04/13 03:46:46;;;;;;;2.70;2.40;;;12.10;99.90;;;;;;5488480;26;20009;-73
2024/04/13 03:49:13;;;;;;;2.42;1.90;;;12.10;99.90;;;;;;5488436;26;20341;-73
2024/04/13 03:51:41;;;;;;;6.82;2.47;;;12.00;99.90;;;;;;5490014;26;20440;-73
2024/04/13 03:54:08;;;;;;;4.25;2.97;;;12.10;99.90;;;;;;5488742;26;20005;-73
2024/04/13 03:56:35;;;;;;;3.33;2.65;;;12.00;99.90;;;;;;5458323;26;20006;-73
2024/04/13 03:59:02;;;;;;;7.80;3.75;;;12.00;99.90;;;;;;5488615;26;20078;-73
2024/04/13 04:01:29;;;;;;;3.25;3.00;;;12.00;99.90;;;;;;5490229;26;19994;-73
2024/04/13 04:03:56;;;;;;;4.90;2.47;;;12.00;99.90;;;;;;5488181;26;20066;-73
2024/04/13 04:06:24;;;;;;;3.38;2.20;;;11.90;99.90;;;;;;5487654;26;20030;-73
2024/04/13 04:08:51;;;;;;;5.65;2.28;;;12.00;99.90;;;;;;5489678;26;19998;-73
2024/04/13 04:11:18;;;;;;;4.10;2.75;;;12.00;99.90;;;;;;5457811;26;20009;-73
2024/04/13 04:13:47;;;;;;;5.90;2.72;;;12.00;99.90;;;;;;5488144;26;20002;-74
2024/04/13 04:16:14;;;;;;;4.65;3.60;;;11.90;99.90;;;;;;5487993;26;19994;-73
2024/04/13 04:18:43;;;;;;;6.43;2.10;;;11.90;99.90;;;;;;5487731;26;19998;-73
2024/04/13 04:21:11;;;;;;;4.13;2.22;;;12.00;99.90;;;;;;5487770;26;20070;-74
2024/04/13 04:23:38;;;;;;;3.35;1.92;;;11.90;99.90;;;;;;5489324;26;19998;-73
2024/04/13 04:26:06;;;;;;;4.68;3.58;;;11.90;99.90;;;;;;5487941;26;20070;-73
2024/04/13 04:28:33;;;;;;;3.70;2.05;;;11.80;99.90;;;;;;5487538;26;20368;-73
2024/04/13 04:31:12;;;;;;;2.92;2.33;;;11.90;99.90;;;;;;5487746;26;20005;-73
2024/04/13 04:33:39;;;;;;;4.10;2.55;;;11.90;99.90;;;;;;5489630;26;20009;-73
2024/04/13 04:36:09;;;;;;;4.45;2.10;;;11.80;99.90;;;;;;5487606;26;20383;-73
2024/04/13 04:38:36;;;;;;;6.30;2.70;;;11.80;99.90;;;;;;5457850;26;20074;-73
2024/04/13 04:41:03;;;;;;;4.80;2.47;;;11.80;99.90;;;;;;5489298;26;20026;-73
2024/04/13 04:43:30;;;;;;;3.60;2.25;;;11.80;99.90;;;;;;5489117;26;19994;-73
2024/04/13 04:45:58;;;;;;;4.05;2.97;;;11.80;99.90;;;;;;5457428;26;20006;-73
2024/04/13 04:48:25;;;;;;;4.80;3.33;;;11.80;99.90;;;;;;5489036;26;20002;-73
2024/04/13 04:50:58;;;;;;;3.10;2.78;;;11.80;99.90;;;;;;5487989;26;20005;-73
2024/04/13 04:53:28;;;;;;;2.92;1.67;;;11.70;99.90;;;;;;5488941;26;20001;-74
2024/04/13 04:55:58;;;;;;;3.03;2.40;;;11.80;99.90;;;;;;5487415;26;19994;-73
2024/04/13 04:58:26;;;;;;;6.00;3.90;;;11.80;99.90;;;;;;5488816;26;20034;-73
2024/04/13 05:00:53;;;;;;;4.57;2.33;;;11.80;99.90;;;;;;5495758;26;20005;-73
2024/04/13 05:03:20;;;;;;;6.95;1.92;;;11.80;99.90;;;;;;5521981;26;19997;-73
2024/04/13 05:05:48;;;;;;;5.07;3.55;;;11.80;99.90;;;;;;5523128;26;20073;-73
2024/04/13 05:08:16;;;;;;;2.80;2.55;;;11.80;99.90;;;;;;5493710;26;19997;-74
2024/04/13 05:10:43;;;;;;;4.80;2.78;;;11.80;99.90;;;;;;5525318;25;20005;-73
2024/04/13 05:13:10;;;;;;;4.40;3.03;;;11.80;99.90;;;;;;5523782;26;20009;-73
2024/04/13 05:15:38;;;;;;;3.72;2.22;;;11.70;99.90;;;;;;5523315;26;19998;-73
2024/04/13 05:18:05;;;;;;;7.15;3.38;;;11.70;99.90;;;;;;5523680;26;20359;-74
2024/04/13 05:20:33;;;;;;;5.82;2.60;;;11.70;99.90;;;;;;5493179;26;20066;-73
2024/04/13 05:23:01;;;;;;;1.92;1.75;;;11.70;99.90;;;;;;5523697;26;20527;-73
2024/04/13 05:25:28;;;;;;;6.63;3.28;;;11.70;99.90;;;;;;5525399;25;20431;-74
2024/04/13 05:27:55;;;;;;;2.80;2.50;;;11.70;99.90;;;;;;5523397;26;19993;-74
2024/04/13 05:30:22;;;;;;;4.18;2.83;;;11.60;99.90;;;;;;5492828;26;20066;-74
2024/04/13 05:32:50;;;;;;;3.00;2.78;;;11.60;99.90;;;;;;5492823;26;20029;-73
2024/04/13 05:35:18;;;;;;;5.15;3.35;;;11.70;99.90;;;;;;5523347;26;20004;-74
2024/04/13 05:37:45;;;;;;;3.92;3.10;;;11.50;99.90;;;;;;5524829;25;20001;-73
2024/04/13 05:40:15;;;;;;;2.75;2.53;;;11.40;99.90;;;;;;5525029;25;20016;-74
2024/04/13 05:42:42;;;;;;;6.22;2.47;;;11.40;99.90;;;;;;5522755;26;20001;-73
2024/04/13 05:45:10;;;;;;;5.25;2.30;;;11.40;99.90;;;;;;5524840;26;20077;-73
2024/04/13 05:47:37;;;;;;;3.92;2.58;;;11.40;99.90;;;;;;5522760;26;19997;-74
2024/04/13 05:50:04;;;;;;;4.38;2.78;;;11.40;99.90;;;;;;5524672;26;20009;-74
2024/04/13 05:52:32;;;;;;;3.30;1.83;;;11.50;99.90;;;;;;5524753;25;20320;-73
2024/04/13 05:54:59;;;;;;;3.75;3.17;;;11.50;99.90;;;;;;5492249;26;20069;-73
2024/04/13 05:57:29;;;;;;;4.70;2.55;;;11.60;99.90;;;;;;5524648;25;20002;-74
2024/04/13 05:59:57;;;;;;;4.78;2.10;;;11.60;99.90;;;;;;5522983;26;20375;-74
2024/04/13 06:02:27;;;;;;;2.83;2.08;;;11.70;99.90;;;;;;5502638;25;20051;-74
2024/04/13 06:04:54;;;;;;;4.68;2.70;;;11.80;99.90;;;;;;5458074;26;20067;-74
2024/04/13 06:07:21;;;;;;;6.55;2.55;;;11.90;99.90;;;;;;5487356;26;20094;-74
2024/04/13 06:09:48;;;;;;;5.22;3.15;;;12.00;99.90;;;;;;5489007;26;19995;-75
2024/04/13 06:12:15;;;;;;;2.80;2.60;;;12.10;99.90;;;;;;5489953;26;19994;-75
2024/04/13 06:14:45;;;;;;;1.98;1.73;;;12.20;99.90;;;;;;5491344;26;20006;-74
2024/04/13 06:17:12;;;;;;;3.78;1.67;;;12.40;99.90;;;;;;5489306;26;20002;-74
2024/04/13 06:19:40;;;;;;;3.60;2.55;;;12.50;99.90;;;;;;5458950;26;20009;-74
2024/04/13 06:22:11;;;;;;;4.30;2.75;;;12.60;99.90;;;;;;5491303;26;20416;-74
2024/04/13 06:24:38;;;;;;;5.75;3.35;;;12.70;99.90;;;;;;5489170;26;20002;-74
2024/04/13 06:27:05;;;;;;;4.75;3.28;;;12.80;99.90;;;;;;5489225;26;20021;-74
2024/04/13 06:29:32;;;;;;;4.97;3.00;;;13.00;99.90;;;;;;5491036;26;20034;-75
2024/04/13 06:31:59;;;;;;;4.35;3.10;;;13.10;99.90;;;;;;5428957;26;20013;-74
2024/04/13 06:34:26;;;;;;;2.42;2.15;;;13.30;99.90;;;;;;5491018;26;20468;-75
2024/04/13 06:36:54;;;;;;;2.35;2.00;;;13.50;99.90;;;;;;5490537;26;20074;-75
2024/04/13 06:39:21;;;;;;;6.22;3.08;;;13.70;99.90;;;;;;5490946;26;20005;-75
2024/04/13 06:41:48;;;;;;;6.15;4.45;;;14.00;99.90;;;;;;5490925;26;20005;-75
2024/04/13 06:44:15;;;;;;;3.33;3.00;;;14.40;99.90;;;;;;5489059;26;20009;-75
2024/04/13 06:46:42;;;;;;;4.70;2.42;;;14.70;99.90;;;;;;5488624;26;19998;-75
2024/04/13 06:49:09;;;;;;;5.55;2.95;;;14.90;99.90;;;;;;5491070;26;19994;-75
2024/04/13 06:51:36;;;;;;;4.60;1.77;;;14.90;99.90;;;;;;5490568;26;20010;-74
2024/04/13 06:54:04;;;;;;;5.35;3.10;;;14.80;99.90;;;;;;5488983;26;19994;-74
2024/04/13 06:56:31;;;;;;;7.75;3.45;;;14.70;99.90;;;;;;5458598;26;20013;-75
2024/04/13 06:58:58;;;;;;;4.25;3.88;;;14.70;99.90;;;;;;5490451;26;20013;-75
2024/04/13 07:01:27;;;;;;;3.50;3.03;;;14.60;99.90;;;;;;5488885;26;20010;-75
2024/04/13 07:03:56;;;;;;;4.38;2.30;;;14.70;99.90;;;;;;5490290;26;20037;-75
2024/04/13 07:06:25;;;;;;;4.82;2.72;;;14.80;99.90;;;;;;5490543;26;20038;-74
2024/04/13 07:08:53;;;;;;;4.78;2.92;;;15.00;99.90;;;;;;5488876;26;20396;-75
2024/04/13 07:11:20;;;;;;;3.63;2.67;;;15.20;99.90;;;;;;5490508;26;20014;-75
2024/04/13 07:13:48;;;;;;;3.25;2.75;;;15.20;99.90;;;;;;5487261;26;20006;-75
2024/04/13 07:16:15;;;;;;;4.90;2.67;;;15.30;99.90;;;;;;5488444;26;19998;-75
2024/04/13 07:18:42;;;;;;;6.63;3.78;;;15.50;99.90;;;;;;5488756;26;19994;-75
2024/04/13 07:21:09;;;;;;;4.72;3.38;;;15.80;99.90;;;;;;5458727;26;20031;-75
2024/04/13 07:23:36;;;;;;;5.72;3.70;;;16.20;99.90;;;;;;5490664;26;20069;-75
2024/04/13 07:26:07;;;;;;;4.65;3.17;;;16.50;99.90;;;;;;5488282;26;20009;-75
2024/04/13 07:28:34;;;;;;;;;;;16.80;99.90;;;;;;5491154;26;20026;-75
2024/04/13 07:31:01;;;;;;;7.25;3.15;;;17.00;99.40;;;;;;5489811;26;19924;-75
2024/04/13 07:33:28;;;;;;;10.20;3.25;;;17.20;99.20;;;;;;5458731;26;20005;-75
2024/04/13 07:35:55;;;;;;;4.32;3.20;;;17.20;98.90;;;;;;5458062;26;20014;-75
2024/04/13 07:38:25;;;;;;;3.92;3.00;;;17.20;98.70;;;;;;5488431;26;19998;-75
2024/04/13 07:40:52;;;;;;;7.50;4.85;;;17.30;98.80;;;;;;5487916;26;20066;-75
2024/04/13 07:43:20;;;;;;;6.93;3.45;;;17.50;98.70;;;;;;5428920;26;20012;-75
2024/04/13 07:45:51;;;;;;;4.13;2.90;;;17.60;98.20;;;;;;5489730;26;20009;-74
2024/04/13 07:48:18;;;;;;;7.78;3.95;;;17.60;97.50;;;;;;5490018;26;20037;-75
2024/04/13 07:50:45;;;;;;;4.65;2.92;;;17.60;96.90;;;;;;5489769;26;20008;-75
2024/04/13 07:53:12;;;;;;;3.53;3.22;;;17.50;97.30;;;;;;5489429;26;19998;-75
2024/04/13 07:55:39;;;;;;;3.72;2.10;;;17.50;97.50;;;;;;5489650;26;20098;-75
2024/04/13 07:58:06;;;;;;;3.92;2.58;;;17.70;97.50;;;;;;5489538;26;20359;-75
2024/04/13 08:00:33;;;;;;;3.55;3.25;;;17.90;97.10;;;;;;5488119;26;19994;-75
2024/04/13 08:03:01;;;;;;;4.50;3.00;;;18.00;96.70;;;;;;5489699;26;20344;-75
2024/04/13 08:05:28;;;;;;;5.80;4.38;;;18.00;96.30;;;;;;5488407;26;20010;-75
2024/04/13 08:07:55;;;;;;;3.92;3.40;;;17.90;96.40;;;;;;5489720;26;20001;-75
2024/04/13 08:10:22;;;;;;;4.28;3.85;;;17.90;96.50;;;;;;5458001;26;20428;-75
2024/04/13 08:12:49;;;;;;;3.95;3.30;;;17.90;96.20;;;;;;5489638;26;19994;-75
2024/04/13 08:15:16;;;;;;;4.38;2.70;;;17.90;96.40;;;;;;5487793;26;19998;-75
2024/04/13 08:17:43;;;;;;;3.88;3.22;;;18.00;96.20;;;;;;5487662;26;20401;-75
2024/04/13 08:20:11;;;;;;;5.00;3.10;;;18.30;95.70;;;;;;5457076;26;20011;-75
2024/04/13 08:22:40;;;;;;;8.43;3.08;;;18.20;95.80;;;;;;5487634;26;19998;-75
2024/04/13 08:25:07;;;;;;;4.75;2.97;;;18.10;95.90;;;;;;5486957;26;20071;-75
2024/04/13 08:27:35;;;;;;;3.67;2.83;;;18.00;95.90;;;;;;5457528;26;20013;-75
2024/04/13 08:30:02;;;;;;;2.55;2.35;;;18.30;95.40;;;;;;5487214;26;20012;-74
2024/04/13 08:32:29;;;;;;;6.50;3.22;;;18.30;95.30;;;;;;5487280;26;20392;-75
2024/04/13 08:34:56;;;;;;;3.35;3.00;;;18.50;95.10;;;;;;5486879;26;20384;-75
2024/04/13 08:37:24;;;;;;;5.82;3.90;;;18.90;94.90;;;;;;5487103;26;19994;-75
2024/04/13 08:39:51;;;;;;;3.42;2.88;;;19.10;93.90;;;;;;5485609;26;19993;-75
2024/04/13 08:42:33;;;;;;;4.07;1.77;;;19.20;94.30;;;;;;5455089;26;20389;-74
2024/04/13 08:45:01;;;;;;;2.53;2.13;;;19.40;94.00;;;;;;5485688;26;20008;-75
2024/04/13 08:47:31;;;;;;;5.20;3.17;;;19.70;93.60;;;;;;5485845;26;19994;-75
2024/04/13 08:49:59;;;;;;;4.03;2.90;;;19.80;93.30;;;;;;5487228;26;20078;-74
2024/04/13 08:52:27;;;;;;;3.45;2.42;;;19.70;93.20;;;;;;5485879;26;19993;-75
2024/04/13 08:54:55;;;;;;;3.83;2.80;;;19.70;93.20;;;;;;5486930;26;20013;-74
2024/04/13 08:57:24;;;;;;;4.63;2.95;;;19.60;92.40;;;;;;5487119;26;19998;-74
2024/04/13 08:59:52;;;;;;;2.40;2.20;;;19.40;93.30;;;;;;5456891;26;20017;-75
2024/04/13 09:02:22;;;;;;;5.80;2.80;;;19.50;93.10;;;;;;5486657;26;20075;-74
2024/04/13 09:04:50;;;;;;;2.97;2.60;;;19.70;93.00;;;;;;5486992;26;19999;-74
2024/04/13 09:07:21;;;;;;;2.80;1.88;;;19.90;92.70;;;;;;5456359;26;20451;-74
2024/04/13 09:09:53;;;;;;;5.22;3.13;;;20.00;92.40;;;;;;5488649;26;20026;-74
2024/04/13 09:12:20;;;;;;;3.15;2.28;;;20.00;91.90;;;;;;5486670;26;19998;-74
2024/04/13 09:14:47;;;;;;;3.80;2.60;;;20.00;92.40;;;;;;5488974;26;20010;-74
2024/04/13 09:17:14;;;;;;;5.35;2.70;;;20.30;92.20;;;;;;5488967;26;19994;-74
2024/04/13 09:19:44;;;;;;;4.88;2.50;;;20.50;91.70;;;;;;5457169;26;20002;-74
2024/04/13 09:22:11;;;;;;;2.28;2.13;;;20.50;91.10;;;;;;5489127;26;20508;-74
2024/04/13 09:24:42;;;;;;;3.05;2.10;;;20.70;91.70;;;;;;5487308;26;20317;-75
2024/04/13 09:27:28;;;;;;;2.90;2.50;;;20.80;91.00;;;;;;5457900;26;20006;-75
2024/04/13 09:30:06;;;;;;;3.20;2.83;;;20.70;90.60;;;;;;5487569;26;20005;-74
2024/04/13 09:32:33;;;;;;;2.40;2.17;;;20.60;91.10;;;;;;5426845;26;20448;-74
2024/04/13 09:35:13;;;;;;;2.80;2.50;;;20.80;90.70;;;;;;5486465;26;20006;-75
2024/04/13 09:37:40;;;;;;;4.30;2.97;;;20.90;90.30;;;;;;5487687;26;20070;-74
2024/04/13 09:40:10;;;;;;;3.78;2.78;;;20.90;90.20;;;;;;5489806;26;20094;-74
2024/04/13 09:42:38;;;;;;;3.92;2.50;;;20.90;90.30;;;;;;5492034;26;20321;-74
2024/04/13 09:45:11;;;;;;;4.07;2.30;;;20.80;90.50;;;;;;5489909;26;20008;-74
2024/04/13 09:47:38;;;;;;;3.08;2.40;;;21.10;90.50;;;;;;5490130;26;20045;-74
2024/04/13 09:50:06;;;;;;;4.97;2.55;;;21.20;89.80;;;;;;5489814;26;19998;-75
2024/04/13 09:52:33;;;;;;;2.45;1.70;;;21.30;89.70;;;;;;5489693;26;20396;-74
2024/04/13 09:55:01;;;;;;;5.28;3.00;;;21.30;90.10;;;;;;5490103;26;20009;-75
2024/04/13 09:57:28;;;;;;;3.78;2.30;;;21.30;88.70;;;;;;5490311;26;20034;-74
2024/04/13 09:59:56;;;;;;;3.10;2.08;;;21.30;89.20;;;;;;5490364;26;20034;-74
2024/04/13 10:02:23;;;;;;;3.38;2.60;;;21.60;88.50;;;;;;5491780;26;19998;-75
2024/04/13 10:04:50;;;;;;;3.47;2.10;;;21.90;87.30;;;;;;5489921;26;20024;-75
2024/04/13 10:07:19;;;;;;;3.30;2.28;;;22.20;87.20;;;;;;5489674;26;19994;-75
2024/04/13 10:09:54;;;;;;;3.30;2.45;;;22.40;86.10;;;;;;5491830;26;20010;-74
2024/04/13 10:12:28;;;;;;;2.90;2.60;;;22.60;85.60;;;;;;5489374;26;19998;-74
2024/04/13 10:14:58;;;;;;;1.55;1.23;;;23.00;83.80;;;;;;5491285;26;20364;-75
2024/04/13 10:17:26;;;;;;;5.20;2.38;;;23.30;83.50;;;;;;5490993;26;20014;-75
2024/04/13 10:19:53;;;;;;;2.13;1.92;;;23.30;83.70;;;;;;5489340;26;20511;-75
2024/04/13 10:22:21;;;;;;;2.30;1.63;;;23.30;82.50;;;;;;5489128;26;20074;-74
2024/04/13 10:25:03;;;;;;;4.10;2.28;;;23.30;83.00;;;;;;5489390;26;20076;-74
2024/04/13 10:27:33;;;;;;;3.25;1.83;;;23.20;83.00;;;;;;5490795;26;20010;-74
2024/04/13 10:30:02;;;;;;;3.22;2.28;;;23.30;82.80;;;;;;5491161;26;20455;-75
2024/04/13 10:32:30;;;;;;;3.03;2.13;;;23.30;81.60;;;;;;5488880;26;19998;-74
2024/04/13 10:35:07;;;;;;;2.92;1.65;;;23.00;81.40;;;;;;5491587;26;20002;-74
2024/04/13 10:37:35;;;;;;;3.88;2.53;;;22.80;81.90;;;;;;5459286;26;20066;-74
2024/04/13 10:40:05;;;;;;;3.38;2.42;;;22.60;81.40;;;;;;5491091;26;20066;-74
2024/04/13 10:42:40;;;;;;;2.63;1.52;;;22.70;82.00;;;;;;5489424;26;20020;-74
2024/04/13 10:45:18;;;;;;;2.20;1.75;;;22.90;81.40;;;;;;5491475;26;20004;-74
2024/04/13 10:47:47;;;;;;;2.30;1.90;;;23.20;80.50;;;;;;5490999;26;20016;-74
2024/04/13 10:50:16;;;;;;;8.18;2.30;;;23.40;80.60;;;;;;5490618;26;20077;-75
2024/04/13 10:52:44;;;;;;;2.60;1.83;;;23.40;80.50;;;;;;5489817;26;20017;-74
2024/04/13 10:55:13;;;;;;;1.73;1.63;;;23.50;79.80;;;;;;5457826;26;19998;-74
2024/04/13 10:57:43;;;;;;;4.53;2.13;;;23.40;79.90;;;;;;5489023;26;20391;-74
2024/04/13 11:00:11;;;;;;;2.30;1.80;;;23.40;79.90;;;;;;5490205;26;19999;-74
2024/04/13 11:02:41;;;;;;;2.17;1.85;;;23.10;80.70;;;;;;5488161;26;20051;-74
2024/04/13 11:05:16;;;;;;;3.45;2.45;;;23.00;80.90;;;;;;5488313;26;20010;-74
2024/04/13 11:07:43;;;;;;;5.93;2.22;;;22.70;81.30;;;;;;5488262;26;20009;-74
2024/04/13 11:10:10;;;;;;;1.98;1.73;;;22.60;81.70;;;;;;5488250;26;20002;-74
2024/04/13 11:12:37;;;;;;;3.72;2.13;;;22.60;82.20;;;;;;5487953;26;20066;-74
2024/04/13 11:15:05;;;;;;;3.10;2.20;;;22.70;82.50;;;;;;5490647;26;19994;-74
2024/04/13 11:17:33;;;;;;;2.55;1.10;;;23.00;82.70;;;;;;5490282;26;20347;-74
2024/04/13 11:20:00;;;;;;;2.17;1.80;;;23.00;81.70;;;;;;5490637;26;19998;-74
2024/04/13 11:22:28;;;;;;;2.30;1.58;;;23.20;81.50;;;;;;5488589;26;20008;-74
2024/04/13 11:24:56;;;;;;;2.72;1.92;;;23.00;81.50;;;;;;5458640;26;20320;-74
2024/04/13 11:27:23;;;;;;;2.28;1.67;;;22.90;81.40;;;;;;5490454;26;20301;-74
2024/04/13 11:29:51;;;;;;;4.25;2.78;;;22.90;81.60;;;;;;5458790;26;19994;-74
2024/04/13 11:32:18;;;;;;;3.83;2.42;;;23.00;80.90;;;;;;5488214;26;20030;-74
2024/04/13 11:34:45;;;;;;;3.53;2.00;;;23.00;81.00;;;;;;5488420;26;19998;-74
2024/04/13 11:37:13;;;;;;;2.03;1.70;;;23.00;81.00;;;;;;5490257;26;19998;-74
2024/04/13 11:39:42;;;;;;;;;;;23.00;80.90;;;;;;5489072;26;20047;-74
2024/04/13 11:42:13;;;;;;;2.50;1.83;;;23.20;81.10;;;;;;5488402;26;19936;-74
2024/04/13 11:44:40;;;;;;;7.05;2.53;;;23.50;81.70;;;;;;5489894;26;19994;-74
2024/04/13 11:47:08;;;;;;;4.15;3.85;;;23.60;81.20;;;;;;5490067;26;20062;-74
2024/04/13 11:49:37;;;;;;;3.17;2.33;;;23.70;81.50;;;;;;5489588;26;20047;-74
2024/04/13 11:52:10;;;;;;;6.65;2.22;;;23.70;81.20;;;;;;5489865;26;20006;-74
2024/04/13 11:54:37;;;;;;;4.03;2.60;;;23.70;81.30;;;;;;5488251;26;20040;-74
2024/04/13 11:57:11;;;;;;;3.38;2.03;;;23.90;81.40;;;;;;5490031;26;20005;-74
2024/04/13 11:59:39;;;;;;;4.28;2.97;;;24.00;81.10;;;;;;5488049;26;20471;-74
2024/04/13 12:02:06;;;;;;;3.72;2.33;;;24.20;81.40;;;;;;5487633;26;20078;-74
2024/04/13 12:04:33;;;;;;;4.38;2.72;;;24.50;81.50;;;;;;5457817;26;19995;-74
2024/04/13 12:07:00;;;;;;;4.00;2.63;;;24.90;80.50;;;;;;5488098;26;20375;-74
2024/04/13 12:09:27;;;;;;;4.95;2.22;;;25.20;79.90;;;;;;5489684;26;19998;-74
2024/04/13 12:11:54;;;;;;;3.08;2.78;;;24.90;79.70;;;;;;5489710;26;20010;-74
2024/04/13 12:14:24;;;;;;;4.28;3.15;;;24.70;79.80;;;;;;5489441;26;19998;-74
2024/04/13 12:16:56;;;;;;;2.35;2.17;;;24.30;80.60;;;;;;5488080;26;20791;-74
2024/04/13 12:19:24;;;;;;;3.50;2.58;;;24.20;80.80;;;;;;5489246;26;20440;-74
2024/04/13 12:21:51;;;;;;;3.80;2.40;;;24.40;81.00;;;;;;5489471;26;20010;-74
2024/04/13 12:24:18;;;;;;;3.05;2.00;;;24.60;80.30;;;;;;5489617;26;19998;-74
2024/04/13 12:26:45;;;;;;;2.83;1.70;;;24.80;80.10;;;;;;5487484;26;20073;-74
2024/04/13 12:29:12;;;;;;;3.80;2.85;;;24.90;80.20;;;;;;5489352;26;19994;-74
2024/04/13 12:31:39;;;;;;;2.67;2.42;;;25.00;80.30;;;;;;5489028;26;20074;-74
2024/04/13 12:34:06;;;;;;;4.78;3.25;;;25.10;80.10;;;;;;5487693;26;19994;-74
2024/04/13 12:36:35;;;;;;;3.08;2.75;;;25.20;79.50;;;;;;5487304;26;20443;-74
2024/04/13 12:39:03;;;;;;;4.65;3.95;;;25.20;79.50;;;;;;5487535;26;20005;-74
2024/04/13 12:41:30;;;;;;;4.40;3.20;;;25.10;79.20;;;;;;5487291;26;19994;-74
2024/04/13 12:43:57;;;;;;;3.08;2.78;;;24.90;79.70;;;;;;5487273;26;20370;-74
2024/04/13 12:46:24;;;;;;;3.78;3.15;;;24.70;80.40;;;;;;5487458;26;20045;-74
2024/04/13 12:48:51;;;;;;;3.35;3.05;;;24.90;81.00;;;;;;5485369;26;20074;-74
2024/04/13 12:51:18;;;;;;;2.38;2.22;;;24.90;80.50;;;;;;5485429;26;20364;-74
2024/04/13 12:53:45;;;;;;;3.63;3.33;;;25.10;80.30;;;;;;5486980;26;20026;-74